sensor_id;sensor_type;location;lat;lon;timestamp;temperature;humidity
42365;DHT22;28498;54.400;18.566;2023-04-10T00:01:11;0.90;99.90
42365;DHT22;28498;54.400;18.566;2023-04-10T00:03:38;0.90;99.90
42365;DHT22;28498;54.400;18.566;2023-04-10T00:06:05;0.90;99.90
42365;DHT22;28498;54.400;18.566;2023-04-10T00:08:33;0.80;99.90
42365;DHT22;28498;54.400;18.566;2023-04-10T00:11:00;0.80;99.90
42365;DHT22;28498;54.400;18.566;2023-04-10T00:13:27;0.70;99.90
42365;DHT22;28498;54.400;18.566;2023-04-10T00:15:54;0.80;99.90
42365;DHT22;28498;54.400;18.566;2023-04-10T00:18:21;0.70;99.90
42365;DHT22;28498;54.400;18.566;2023-04-10T00:20:48;0.70;99.90
42365;DHT22;28498;54.400;18.566;2023-04-10T00:23:15;0.60;99.90
42365;DHT22;28498;54.400;18.566;2023-04-10T00:25:42;0.50;99.90
42365;DHT22;28498;54.400;18.566;2023-04-10T00:28:09;0.50;99.90
42365;DHT22;28498;54.400;18.566;2023-04-10T00:30:36;0.50;99.90
42365;DHT22;28498;54.400;18.566;2023-04-10T00:33:03;0.40;99.90
42365;DHT22;28498;54.400;18.566;2023-04-10T00:35:30;0.60;99.90
42365;DHT22;28498;54.400;18.566;2023-04-10T00:37:57;0.60;99.90
42365;DHT22;28498;54.400;18.566;2023-04-10T00:40:24;0.60;99.90
42365;DHT22;28498;54.400;18.566;2023-04-10T00:42:52;0.70;99.90
42365;DHT22;28498;54.400;18.566;2023-04-10T00:45:19;0.70;99.90
42365;DHT22;28498;54.400;18.566;2023-04-10T00:47:46;0.70;99.90
42365;DHT22;28498;54.400;18.566;2023-04-10T00:50:13;0.60;99.90
42365;DHT22;28498;54.400;18.566;2023-04-10T00:52:40;0.50;99.90
42365;DHT22;28498;54.400;18.566;2023-04-10T00:55:07;0.50;99.90
42365;DHT22;28498;54.400;18.566;2023-04-10T00:57:35;0.50;99.90
42365;DHT22;28498;54.400;18.566;2023-04-10T01:00:02;0.40;99.90
42365;DHT22;28498;54.400;18.566;2023-04-10T01:02:30;0.40;99.90
42365;DHT22;28498;54.400;18.566;2023-04-10T01:04:58;0.30;99.90
42365;DHT22;28498;54.400;18.566;2023-04-10T01:07:47;0.30;99.90
42365;DHT22;28498;54.400;18.566;2023-04-10T01:13:05;0.30;99.90
42365;DHT22;28498;54.400;18.566;2023-04-10T01:15:45;0.30;99.90
42365;DHT22;28498;54.400;18.566;2023-04-10T01:18:30;0.30;99.90
42365;DHT22;28498;54.400;18.566;2023-04-10T01:21:01;0.20;99.90
42365;DHT22;28498;54.400;18.566;2023-04-10T01:29:08;0.10;99.90
42365;DHT22;28498;54.400;18.566;2023-04-10T01:31:41;0.10;99.90
42365;DHT22;28498;54.400;18.566;2023-04-10T01:34:19;0.20;99.90
42365;DHT22;28498;54.400;18.566;2023-04-10T01:36:53;0.10;99.90
42365;DHT22;28498;54.400;18.566;2023-04-10T01:39:21;0.10;99.90
42365;DHT22;28498;54.400;18.566;2023-04-10T01:41:51;0.10;99.90
42365;DHT22;28498;54.400;18.566;2023-04-10T01:44:22;0.10;99.90
42365;DHT22;28498;54.400;18.566;2023-04-10T01:46:52;0.10;99.90
42365;DHT22;28498;54.400;18.566;2023-04-10T01:49:20;0.10;99.90
42365;DHT22;28498;54.400;18.566;2023-04-10T01:51:50;0.20;99.90
42365;DHT22;28498;54.400;18.566;2023-04-10T01:54:17;0.10;99.90
42365;DHT22;28498;54.400;18.566;2023-04-10T01:56:44;0.20;99.90
42365;DHT22;28498;54.400;18.566;2023-04-10T01:59:11;0.10;99.90
42365;DHT22;28498;54.400;18.566;2023-04-10T02:01:38;0.10;99.90
42365;DHT22;28498;54.400;18.566;2023-04-10T02:04:06;0.10;99.90
42365;DHT22;28498;54.400;18.566;2023-04-10T02:09:11;0.20;99.90
42365;DHT22;28498;54.400;18.566;2023-04-10T02:14:19;0.10;99.90
42365;DHT22;28498;54.400;18.566;2023-04-10T02:16:50;0.00;99.90
42365;DHT22;28498;54.400;18.566;2023-04-10T02:19:20;-0.10;99.90
42365;DHT22;28498;54.400;18.566;2023-04-10T02:21:49;-0.10;99.90
42365;DHT22;28498;54.400;18.566;2023-04-10T02:24:18;-0.10;99.90
42365;DHT22;28498;54.400;18.566;2023-04-10T02:26:47;-0.20;99.90
42365;DHT22;28498;54.400;18.566;2023-04-10T02:29:15;-0.20;99.90
42365;DHT22;28498;54.400;18.566;2023-04-10T02:31:43;-0.20;99.90
42365;DHT22;28498;54.400;18.566;2023-04-10T02:34:11;-0.10;99.90
42365;DHT22;28498;54.400;18.566;2023-04-10T02:36:38;0.00;99.90
42365;DHT22;28498;54.400;18.566;2023-04-10T02:39:06;0.10;99.90
42365;DHT22;28498;54.400;18.566;2023-04-10T02:41:33;0.00;99.90
42365;DHT22;28498;54.400;18.566;2023-04-10T02:44:00;-0.10;99.90
42365;DHT22;28498;54.400;18.566;2023-04-10T02:50:15;-0.10;99.90
42365;DHT22;28498;54.400;18.566;2023-04-10T02:52:43;-0.20;99.90
42365;DHT22;28498;54.400;18.566;2023-04-10T02:55:11;-0.30;99.90
42365;DHT22;28498;54.400;18.566;2023-04-10T02:57:38;-0.30;99.90
42365;DHT22;28498;54.400;18.566;2023-04-10T03:00:05;-0.30;99.90
42365;DHT22;28498;54.400;18.566;2023-04-10T03:02:32;-0.20;99.90
42365;DHT22;28498;54.400;18.566;2023-04-10T03:05:00;-0.10;99.90
42365;DHT22;28498;54.400;18.566;2023-04-10T03:07:28;-0.10;99.90
42365;DHT22;28498;54.400;18.566;2023-04-10T03:09:55;-0.20;99.90
42365;DHT22;28498;54.400;18.566;2023-04-10T03:12:21;-0.20;99.90
42365;DHT22;28498;54.400;18.566;2023-04-10T03:14:49;-0.20;99.90
42365;DHT22;28498;54.400;18.566;2023-04-10T03:17:15;-0.10;99.90
42365;DHT22;28498;54.400;18.566;2023-04-10T03:19:43;-0.30;99.90
42365;DHT22;28498;54.400;18.566;2023-04-10T03:22:09;-0.30;99.90
42365;DHT22;28498;54.400;18.566;2023-04-10T03:24:37;-0.30;99.90
42365;DHT22;28498;54.400;18.566;2023-04-10T03:27:04;-0.30;99.90
42365;DHT22;28498;54.400;18.566;2023-04-10T03:29:31;-0.30;99.90
42365;DHT22;28498;54.400;18.566;2023-04-10T03:31:57;-0.40;99.90
42365;DHT22;28498;54.400;18.566;2023-04-10T03:34:25;-0.30;99.90
42365;DHT22;28498;54.400;18.566;2023-04-10T03:36:52;-0.40;99.90
42365;DHT22;28498;54.400;18.566;2023-04-10T03:39:19;-0.40;99.90
42365;DHT22;28498;54.400;18.566;2023-04-10T03:41:46;-0.40;99.90
42365;DHT22;28498;54.400;18.566;2023-04-10T03:44:13;-0.40;99.90
42365;DHT22;28498;54.400;18.566;2023-04-10T03:46:40;-0.40;99.90
42365;DHT22;28498;54.400;18.566;2023-04-10T03:49:07;-0.50;99.90
42365;DHT22;28498;54.400;18.566;2023-04-10T03:51:33;-0.50;99.90
42365;DHT22;28498;54.400;18.566;2023-04-10T03:54:01;-0.50;99.90
42365;DHT22;28498;54.400;18.566;2023-04-10T03:56:28;-0.50;99.90
42365;DHT22;28498;54.400;18.566;2023-04-10T03:58:54;-0.50;99.90
42365;DHT22;28498;54.400;18.566;2023-04-10T04:01:22;-0.50;99.90
42365;DHT22;28498;54.400;18.566;2023-04-10T04:03:49;-0.40;99.90
42365;DHT22;28498;54.400;18.566;2023-04-10T04:06:16;-0.40;99.90
42365;DHT22;28498;54.400;18.566;2023-04-10T04:08:43;-0.30;99.90
42365;DHT22;28498;54.400;18.566;2023-04-10T04:11:09;-0.30;99.90
42365;DHT22;28498;54.400;18.566;2023-04-10T04:13:37;-0.30;99.90
42365;DHT22;28498;54.400;18.566;2023-04-10T04:16:04;-0.20;99.90
42365;DHT22;28498;54.400;18.566;2023-04-10T04:18:31;-0.20;99.90
42365;DHT22;28498;54.400;18.566;2023-04-10T04:20:58;-0.10;99.90
42365;DHT22;28498;54.400;18.566;2023-04-10T04:23:25;0.00;99.90
42365;DHT22;28498;54.400;18.566;2023-04-10T04:25:53;0.00;99.90
42365;DHT22;28498;54.400;18.566;2023-04-10T04:28:22;0.10;99.90
42365;DHT22;28498;54.400;18.566;2023-04-10T04:30:49;0.10;99.90
42365;DHT22;28498;54.400;18.566;2023-04-10T04:33:16;0.20;99.90
42365;DHT22;28498;54.400;18.566;2023-04-10T04:35:43;0.20;99.90
42365;DHT22;28498;54.400;18.566;2023-04-10T04:38:10;0.30;99.90
42365;DHT22;28498;54.400;18.566;2023-04-10T04:40:36;0.40;99.90
42365;DHT22;28498;54.400;18.566;2023-04-10T04:43:03;0.70;99.90
42365;DHT22;28498;54.400;18.566;2023-04-10T04:45:30;1.00;99.90
42365;DHT22;28498;54.400;18.566;2023-04-10T04:47:57;1.10;99.90
42365;DHT22;28498;54.400;18.566;2023-04-10T04:50:25;1.10;99.90
42365;DHT22;28498;54.400;18.566;2023-04-10T04:52:52;1.20;99.90
42365;DHT22;28498;54.400;18.566;2023-04-10T04:55:19;1.20;99.90
42365;DHT22;28498;54.400;18.566;2023-04-10T04:57:45;1.20;99.90
42365;DHT22;28498;54.400;18.566;2023-04-10T05:00:12;1.30;99.90
42365;DHT22;28498;54.400;18.566;2023-04-10T05:02:40;1.30;99.90
42365;DHT22;28498;54.400;18.566;2023-04-10T05:05:07;1.40;99.90
42365;DHT22;28498;54.400;18.566;2023-04-10T05:07:34;1.40;99.90
42365;DHT22;28498;54.400;18.566;2023-04-10T05:10:01;1.50;99.90
42365;DHT22;28498;54.400;18.566;2023-04-10T05:12:28;1.60;99.90
42365;DHT22;28498;54.400;18.566;2023-04-10T05:14:55;1.70;99.90
42365;DHT22;28498;54.400;18.566;2023-04-10T05:17:22;1.80;99.90
42365;DHT22;28498;54.400;18.566;2023-04-10T05:19:49;1.90;99.90
42365;DHT22;28498;54.400;18.566;2023-04-10T05:22:16;2.20;99.90
42365;DHT22;28498;54.400;18.566;2023-04-10T05:24:44;2.20;99.90
42365;DHT22;28498;54.400;18.566;2023-04-10T05:27:11;2.40;99.90
42365;DHT22;28498;54.400;18.566;2023-04-10T05:29:38;2.50;99.90
42365;DHT22;28498;54.400;18.566;2023-04-10T05:32:05;2.70;99.90
42365;DHT22;28498;54.400;18.566;2023-04-10T05:34:32;2.80;99.90
42365;DHT22;28498;54.400;18.566;2023-04-10T05:36:59;3.00;99.90
42365;DHT22;28498;54.400;18.566;2023-04-10T05:39:26;3.10;99.90
42365;DHT22;28498;54.400;18.566;2023-04-10T05:41:53;3.30;99.90
42365;DHT22;28498;54.400;18.566;2023-04-10T05:44:20;3.40;99.90
42365;DHT22;28498;54.400;18.566;2023-04-10T05:46:47;3.60;99.90
42365;DHT22;28498;54.400;18.566;2023-04-10T05:49:14;3.70;99.90
42365;DHT22;28498;54.400;18.566;2023-04-10T05:51:42;3.90;99.90
42365;DHT22;28498;54.400;18.566;2023-04-10T05:54:09;4.00;99.90
42365;DHT22;28498;54.400;18.566;2023-04-10T05:56:36;4.20;99.90
42365;DHT22;28498;54.400;18.566;2023-04-10T05:59:03;4.30;99.90
42365;DHT22;28498;54.400;18.566;2023-04-10T06:01:30;4.40;99.90
42365;DHT22;28498;54.400;18.566;2023-04-10T06:03:57;4.60;99.90
42365;DHT22;28498;54.400;18.566;2023-04-10T06:06:25;4.80;99.90
42365;DHT22;28498;54.400;18.566;2023-04-10T06:08:52;5.00;99.90
42365;DHT22;28498;54.400;18.566;2023-04-10T06:11:19;5.20;99.90
42365;DHT22;28498;54.400;18.566;2023-04-10T06:13:47;5.30;99.90
42365;DHT22;28498;54.400;18.566;2023-04-10T06:16:14;5.40;99.90
42365;DHT22;28498;54.400;18.566;2023-04-10T06:18:42;5.70;99.90
42365;DHT22;28498;54.400;18.566;2023-04-10T06:21:09;5.90;99.90
42365;DHT22;28498;54.400;18.566;2023-04-10T06:23:36;6.10;99.90
42365;DHT22;28498;54.400;18.566;2023-04-10T06:26:03;6.30;99.90
42365;DHT22;28498;54.400;18.566;2023-04-10T06:28:31;6.40;99.90
42365;DHT22;28498;54.400;18.566;2023-04-10T06:30:59;6.60;99.90
42365;DHT22;28498;54.400;18.566;2023-04-10T06:33:29;6.80;99.90
42365;DHT22;28498;54.400;18.566;2023-04-10T06:35:57;7.00;99.90
42365;DHT22;28498;54.400;18.566;2023-04-10T06:38:24;7.10;99.90
42365;DHT22;28498;54.400;18.566;2023-04-10T06:40:51;7.30;99.90
42365;DHT22;28498;54.400;18.566;2023-04-10T06:43:18;7.40;99.90
42365;DHT22;28498;54.400;18.566;2023-04-10T06:45:45;7.50;99.90
42365;DHT22;28498;54.400;18.566;2023-04-10T06:48:12;7.70;99.90
42365;DHT22;28498;54.400;18.566;2023-04-10T06:50:39;7.80;99.90
42365;DHT22;28498;54.400;18.566;2023-04-10T06:53:06;7.90;99.90
42365;DHT22;28498;54.400;18.566;2023-04-10T06:55:33;8.00;99.90
42365;DHT22;28498;54.400;18.566;2023-04-10T06:58:00;8.10;99.90
42365;DHT22;28498;54.400;18.566;2023-04-10T07:00:27;8.20;99.90
42365;DHT22;28498;54.400;18.566;2023-04-10T07:02:54;8.40;99.90
42365;DHT22;28498;54.400;18.566;2023-04-10T07:05:21;8.50;99.90
42365;DHT22;28498;54.400;18.566;2023-04-10T07:07:49;8.50;99.90
42365;DHT22;28498;54.400;18.566;2023-04-10T07:14:04;8.80;99.90
42365;DHT22;28498;54.400;18.566;2023-04-10T07:16:30;9.00;99.90
42365;DHT22;28498;54.400;18.566;2023-04-10T07:22:45;9.20;99.90
42365;DHT22;28498;54.400;18.566;2023-04-10T07:25:12;9.20;99.90
42365;DHT22;28498;54.400;18.566;2023-04-10T07:27:40;9.20;99.90
42365;DHT22;28498;54.400;18.566;2023-04-10T07:30:07;9.30;99.90
42365;DHT22;28498;54.400;18.566;2023-04-10T07:32:34;9.40;99.90
42365;DHT22;28498;54.400;18.566;2023-04-10T07:35:03;9.30;99.90
42365;DHT22;28498;54.400;18.566;2023-04-10T07:37:31;9.40;99.90
42365;DHT22;28498;54.400;18.566;2023-04-10T07:39:57;9.50;99.90
42365;DHT22;28498;54.400;18.566;2023-04-10T07:42:24;9.60;99.90
42365;DHT22;28498;54.400;18.566;2023-04-10T07:44:52;9.70;99.90
42365;DHT22;28498;54.400;18.566;2023-04-10T07:47:19;9.70;99.90
42365;DHT22;28498;54.400;18.566;2023-04-10T07:49:46;9.60;99.90
42365;DHT22;28498;54.400;18.566;2023-04-10T07:52:13;9.70;99.90
42365;DHT22;28498;54.400;18.566;2023-04-10T07:54:40;9.60;99.90
42365;DHT22;28498;54.400;18.566;2023-04-10T07:57:07;9.70;99.90
42365;DHT22;28498;54.400;18.566;2023-04-10T07:59:34;9.80;99.90
42365;DHT22;28498;54.400;18.566;2023-04-10T08:02:01;9.90;99.90
42365;DHT22;28498;54.400;18.566;2023-04-10T08:04:28;10.00;99.90
42365;DHT22;28498;54.400;18.566;2023-04-10T08:06:56;10.10;99.90
42365;DHT22;28498;54.400;18.566;2023-04-10T08:09:23;10.20;99.90
42365;DHT22;28498;54.400;18.566;2023-04-10T08:11:50;10.00;99.90
42365;DHT22;28498;54.400;18.566;2023-04-10T08:14:17;10.10;99.90
42365;DHT22;28498;54.400;18.566;2023-04-10T08:16:44;10.20;99.90
42365;DHT22;28498;54.400;18.566;2023-04-10T08:19:11;10.30;99.90
42365;DHT22;28498;54.400;18.566;2023-04-10T08:21:38;10.30;99.90
42365;DHT22;28498;54.400;18.566;2023-04-10T08:24:05;10.40;99.90
42365;DHT22;28498;54.400;18.566;2023-04-10T08:26:32;10.40;99.90
42365;DHT22;28498;54.400;18.566;2023-04-10T08:28:59;10.40;99.90
42365;DHT22;28498;54.400;18.566;2023-04-10T08:31:27;10.40;99.90
42365;DHT22;28498;54.400;18.566;2023-04-10T08:33:55;10.50;99.90
42365;DHT22;28498;54.400;18.566;2023-04-10T08:36:23;10.60;99.90
42365;DHT22;28498;54.400;18.566;2023-04-10T08:38:50;10.70;99.90
42365;DHT22;28498;54.400;18.566;2023-04-10T08:41:18;10.70;99.90
42365;DHT22;28498;54.400;18.566;2023-04-10T08:43:45;10.60;99.90
42365;DHT22;28498;54.400;18.566;2023-04-10T08:46:13;10.60;99.90
42365;DHT22;28498;54.400;18.566;2023-04-10T08:48:46;10.70;99.90
42365;DHT22;28498;54.400;18.566;2023-04-10T08:51:19;10.80;99.90
42365;DHT22;28498;54.400;18.566;2023-04-10T08:53:55;10.70;99.90
42365;DHT22;28498;54.400;18.566;2023-04-10T08:56:24;10.80;99.90
42365;DHT22;28498;54.400;18.566;2023-04-10T08:58:52;10.80;99.90
42365;DHT22;28498;54.400;18.566;2023-04-10T09:01:20;10.90;99.90
42365;DHT22;28498;54.400;18.566;2023-04-10T09:03:47;11.10;99.90
42365;DHT22;28498;54.400;18.566;2023-04-10T09:06:14;11.10;99.90
42365;DHT22;28498;54.400;18.566;2023-04-10T09:08:41;11.10;99.90
42365;DHT22;28498;54.400;18.566;2023-04-10T09:11:08;11.10;99.90
42365;DHT22;28498;54.400;18.566;2023-04-10T09:13:43;11.10;99.90
42365;DHT22;28498;54.400;18.566;2023-04-10T09:16:12;11.20;99.90
42365;DHT22;28498;54.400;18.566;2023-04-10T09:18:46;11.20;99.90
42365;DHT22;28498;54.400;18.566;2023-04-10T09:21:18;11.20;99.90
42365;DHT22;28498;54.400;18.566;2023-04-10T09:23:47;11.20;99.90
42365;DHT22;28498;54.400;18.566;2023-04-10T09:28:56;11.30;99.80
42365;DHT22;28498;54.400;18.566;2023-04-10T09:31:34;11.30;99.90
42365;DHT22;28498;54.400;18.566;2023-04-10T09:34:19;11.30;99.90
42365;DHT22;28498;54.400;18.566;2023-04-10T09:36:58;11.20;99.90
42365;DHT22;28498;54.400;18.566;2023-04-10T09:39:36;11.20;99.90
42365;DHT22;28498;54.400;18.566;2023-04-10T09:45:55;11.20;99.90
42365;DHT22;28498;54.400;18.566;2023-04-10T09:48:24;11.10;99.90
42365;DHT22;28498;54.400;18.566;2023-04-10T09:50:52;11.20;99.90
42365;DHT22;28498;54.400;18.566;2023-04-10T09:53:20;11.10;99.90
42365;DHT22;28498;54.400;18.566;2023-04-10T09:55:48;10.90;99.90
42365;DHT22;28498;54.400;18.566;2023-04-10T09:58:16;10.90;99.90
42365;DHT22;28498;54.400;18.566;2023-04-10T10:00:47;10.80;99.90
42365;DHT22;28498;54.400;18.566;2023-04-10T10:03:18;10.80;99.90
42365;DHT22;28498;54.400;18.566;2023-04-10T10:05:50;10.80;99.90
42365;DHT22;28498;54.400;18.566;2023-04-10T10:08:17;10.80;99.90
42365;DHT22;28498;54.400;18.566;2023-04-10T10:10:52;10.90;99.90
42365;DHT22;28498;54.400;18.566;2023-04-10T10:13:34;11.00;99.90
42365;DHT22;28498;54.400;18.566;2023-04-10T10:16:38;11.00;99.90
42365;DHT22;28498;54.400;18.566;2023-04-10T10:19:12;10.90;99.90
42365;DHT22;28498;54.400;18.566;2023-04-10T10:21:46;10.90;99.90
42365;DHT22;28498;54.400;18.566;2023-04-10T10:24:14;10.80;99.90
42365;DHT22;28498;54.400;18.566;2023-04-10T10:26:43;10.70;99.90
42365;DHT22;28498;54.400;18.566;2023-04-10T10:29:14;10.80;99.90
42365;DHT22;28498;54.400;18.566;2023-04-10T10:31:45;10.70;99.90
42365;DHT22;28498;54.400;18.566;2023-04-10T10:34:14;10.80;99.90
42365;DHT22;28498;54.400;18.566;2023-04-10T10:36:42;10.70;99.90
42365;DHT22;28498;54.400;18.566;2023-04-10T10:44:44;10.70;99.90
42365;DHT22;28498;54.400;18.566;2023-04-10T10:47:14;10.60;99.90
42365;DHT22;28498;54.400;18.566;2023-04-10T10:49:59;10.40;99.90
42365;DHT22;28498;54.400;18.566;2023-04-10T10:57:49;10.50;99.90
42365;DHT22;28498;54.400;18.566;2023-04-10T11:00:24;10.50;99.90
42365;DHT22;28498;54.400;18.566;2023-04-10T11:11:09;10.50;99.90
42365;DHT22;28498;54.400;18.566;2023-04-10T11:13:38;10.50;99.90
42365;DHT22;28498;54.400;18.566;2023-04-10T11:16:07;10.70;99.90
42365;DHT22;28498;54.400;18.566;2023-04-10T11:21:16;10.40;99.90
42365;DHT22;28498;54.400;18.566;2023-04-10T11:26:37;10.40;99.90
42365;DHT22;28498;54.400;18.566;2023-04-10T11:31:34;10.30;99.90
42365;DHT22;28498;54.400;18.566;2023-04-10T11:34:07;10.20;99.90
42365;DHT22;28498;54.400;18.566;2023-04-10T11:36:37;10.40;99.90
42365;DHT22;28498;54.400;18.566;2023-04-10T11:39:07;10.40;99.90
42365;DHT22;28498;54.400;18.566;2023-04-10T11:41:40;10.50;99.90
42365;DHT22;28498;54.400;18.566;2023-04-10T11:44:09;10.40;99.90
42365;DHT22;28498;54.400;18.566;2023-04-10T11:46:44;10.60;99.90
42365;DHT22;28498;54.400;18.566;2023-04-10T11:49:21;10.60;99.90
42365;DHT22;28498;54.400;18.566;2023-04-10T11:51:49;10.60;99.90
42365;DHT22;28498;54.400;18.566;2023-04-10T11:54:25;10.70;99.90
42365;DHT22;28498;54.400;18.566;2023-04-10T11:59:27;10.60;99.90
42365;DHT22;28498;54.400;18.566;2023-04-10T12:02:06;10.60;99.90
42365;DHT22;28498;54.400;18.566;2023-04-10T12:04:34;10.60;99.90
42365;DHT22;28498;54.400;18.566;2023-04-10T12:07:02;10.60;99.90
42365;DHT22;28498;54.400;18.566;2023-04-10T12:09:29;10.60;99.90
42365;DHT22;28498;54.400;18.566;2023-04-10T12:12:02;10.50;99.90
42365;DHT22;28498;54.400;18.566;2023-04-10T12:14:34;10.40;99.90
42365;DHT22;28498;54.400;18.566;2023-04-10T12:17:03;10.40;99.90
42365;DHT22;28498;54.400;18.566;2023-04-10T12:19:32;10.40;99.90
42365;DHT22;28498;54.400;18.566;2023-04-10T12:21:59;10.50;99.90
42365;DHT22;28498;54.400;18.566;2023-04-10T12:24:49;10.50;99.90
42365;DHT22;28498;54.400;18.566;2023-04-10T12:27:26;10.60;99.90
42365;DHT22;28498;54.400;18.566;2023-04-10T12:29:55;10.50;99.90
42365;DHT22;28498;54.400;18.566;2023-04-10T12:32:23;10.50;99.90
42365;DHT22;28498;54.400;18.566;2023-04-10T12:34:57;10.50;99.90
42365;DHT22;28498;54.400;18.566;2023-04-10T12:37:49;10.50;99.90
42365;DHT22;28498;54.400;18.566;2023-04-10T12:40:17;10.50;99.90
42365;DHT22;28498;54.400;18.566;2023-04-10T12:42:46;10.70;99.90
42365;DHT22;28498;54.400;18.566;2023-04-10T12:45:13;10.80;99.90
42365;DHT22;28498;54.400;18.566;2023-04-10T12:47:48;10.60;99.90
42365;DHT22;28498;54.400;18.566;2023-04-10T12:50:18;10.70;99.90
42365;DHT22;28498;54.400;18.566;2023-04-10T12:53:02;10.80;99.90
42365;DHT22;28498;54.400;18.566;2023-04-10T12:55:29;10.90;99.90
42365;DHT22;28498;54.400;18.566;2023-04-10T12:57:56;10.90;99.90
42365;DHT22;28498;54.400;18.566;2023-04-10T13:00:24;10.90;99.90
42365;DHT22;28498;54.400;18.566;2023-04-10T13:02:51;10.80;99.90
42365;DHT22;28498;54.400;18.566;2023-04-10T13:05:19;10.80;99.90
42365;DHT22;28498;54.400;18.566;2023-04-10T13:07:47;10.90;99.90
42365;DHT22;28498;54.400;18.566;2023-04-10T13:10:18;10.80;99.90
42365;DHT22;28498;54.400;18.566;2023-04-10T13:12:46;11.00;99.90
42365;DHT22;28498;54.400;18.566;2023-04-10T13:15:13;10.80;99.90
42365;DHT22;28498;54.400;18.566;2023-04-10T13:17:40;11.00;99.90
42365;DHT22;28498;54.400;18.566;2023-04-10T13:20:08;11.00;99.90
42365;DHT22;28498;54.400;18.566;2023-04-10T13:22:36;11.00;99.90
42365;DHT22;28498;54.400;18.566;2023-04-10T13:25:04;11.10;99.90
42365;DHT22;28498;54.400;18.566;2023-04-10T13:27:31;11.10;99.90
42365;DHT22;28498;54.400;18.566;2023-04-10T13:29:58;11.10;99.90
42365;DHT22;28498;54.400;18.566;2023-04-10T13:32:25;11.20;99.90
42365;DHT22;28498;54.400;18.566;2023-04-10T13:34:52;11.40;99.90
42365;DHT22;28498;54.400;18.566;2023-04-10T13:37:20;11.40;99.90
42365;DHT22;28498;54.400;18.566;2023-04-10T13:39:47;11.30;99.90
42365;DHT22;28498;54.400;18.566;2023-04-10T13:42:14;11.30;99.90
42365;DHT22;28498;54.400;18.566;2023-04-10T13:44:41;11.20;99.90
42365;DHT22;28498;54.400;18.566;2023-04-10T13:47:08;11.10;99.90
42365;DHT22;28498;54.400;18.566;2023-04-10T13:49:35;10.90;99.90
42365;DHT22;28498;54.400;18.566;2023-04-10T13:52:02;11.00;99.90
42365;DHT22;28498;54.400;18.566;2023-04-10T13:54:29;11.10;99.90
42365;DHT22;28498;54.400;18.566;2023-04-10T13:56:55;11.00;99.90
42365;DHT22;28498;54.400;18.566;2023-04-10T13:59:24;10.80;99.90
42365;DHT22;28498;54.400;18.566;2023-04-10T14:01:51;10.70;99.90
42365;DHT22;28498;54.400;18.566;2023-04-10T14:04:19;10.80;99.90
42365;DHT22;28498;54.400;18.566;2023-04-10T14:06:46;10.70;99.90
42365;DHT22;28498;54.400;18.566;2023-04-10T14:09:14;10.70;99.90
42365;DHT22;28498;54.400;18.566;2023-04-10T14:11:41;10.80;99.90
42365;DHT22;28498;54.400;18.566;2023-04-10T14:14:08;10.80;99.90
42365;DHT22;28498;54.400;18.566;2023-04-10T14:16:35;10.80;99.90
42365;DHT22;28498;54.400;18.566;2023-04-10T14:19:02;10.60;99.90
42365;DHT22;28498;54.400;18.566;2023-04-10T14:25:17;10.50;99.90
42365;DHT22;28498;54.400;18.566;2023-04-10T14:27:44;11.10;99.90
42365;DHT22;28498;54.400;18.566;2023-04-10T14:30:11;11.70;99.90
42365;DHT22;28498;54.400;18.566;2023-04-10T14:32:39;12.20;99.90
42365;DHT22;28498;54.400;18.566;2023-04-10T14:35:07;12.60;99.90
42365;DHT22;28498;54.400;18.566;2023-04-10T14:37:34;13.10;99.90
42365;DHT22;28498;54.400;18.566;2023-04-10T14:40:02;13.80;99.30
42365;DHT22;28498;54.400;18.566;2023-04-10T14:42:30;13.70;99.60
42365;DHT22;28498;54.400;18.566;2023-04-10T14:44:57;13.60;99.10
42365;DHT22;28498;54.400;18.566;2023-04-10T14:47:24;13.40;99.90
42365;DHT22;28498;54.400;18.566;2023-04-10T14:49:52;14.10;99.00
42365;DHT22;28498;54.400;18.566;2023-04-10T14:52:19;13.90;99.90
42365;DHT22;28498;54.400;18.566;2023-04-10T14:54:45;13.80;99.50
42365;DHT22;28498;54.400;18.566;2023-04-10T14:57:13;14.00;99.50
42365;DHT22;28498;54.400;18.566;2023-04-10T14:59:41;13.90;99.20
42365;DHT22;28498;54.400;18.566;2023-04-10T15:02:08;14.10;98.30
42365;DHT22;28498;54.400;18.566;2023-04-10T15:04:35;13.90;97.70
42365;DHT22;28498;54.400;18.566;2023-04-10T15:07:02;13.90;99.60
42365;DHT22;28498;54.400;18.566;2023-04-10T15:09:29;13.40;99.50
42365;DHT22;28498;54.400;18.566;2023-04-10T15:11:56;13.20;99.20
42365;DHT22;28498;54.400;18.566;2023-04-10T15:14:23;12.70;99.90
42365;DHT22;28498;54.400;18.566;2023-04-10T15:16:50;12.30;99.90
42365;DHT22;28498;54.400;18.566;2023-04-10T15:19:19;12.90;99.90
42365;DHT22;28498;54.400;18.566;2023-04-10T15:21:46;13.10;99.90
42365;DHT22;28498;54.400;18.566;2023-04-10T15:24:13;13.40;99.90
42365;DHT22;28498;54.400;18.566;2023-04-10T15:26:45;13.00;99.90
42365;DHT22;28498;54.400;18.566;2023-04-10T15:29:13;13.00;99.90
42365;DHT22;28498;54.400;18.566;2023-04-10T15:31:40;12.80;99.90
42365;DHT22;28498;54.400;18.566;2023-04-10T15:34:07;12.90;99.90
42365;DHT22;28498;54.400;18.566;2023-04-10T15:36:34;12.90;99.90
42365;DHT22;28498;54.400;18.566;2023-04-10T15:39:01;12.60;99.90
42365;DHT22;28498;54.400;18.566;2023-04-10T15:41:29;12.50;99.90
42365;DHT22;28498;54.400;18.566;2023-04-10T15:43:58;12.60;99.90
42365;DHT22;28498;54.400;18.566;2023-04-10T15:46:25;12.30;99.90
42365;DHT22;28498;54.400;18.566;2023-04-10T15:48:52;12.50;99.90
42365;DHT22;28498;54.400;18.566;2023-04-10T15:51:19;12.40;99.90
42365;DHT22;28498;54.400;18.566;2023-04-10T15:53:47;12.50;99.90
42365;DHT22;28498;54.400;18.566;2023-04-10T15:56:14;12.50;99.90
42365;DHT22;28498;54.400;18.566;2023-04-10T15:58:41;12.80;99.90
42365;DHT22;28498;54.400;18.566;2023-04-10T16:01:08;13.80;99.90
42365;DHT22;28498;54.400;18.566;2023-04-10T16:03:36;14.00;99.30
42365;DHT22;28498;54.400;18.566;2023-04-10T16:06:03;13.80;99.90
42365;DHT22;28498;54.400;18.566;2023-04-10T16:08:30;14.00;98.90
42365;DHT22;28498;54.400;18.566;2023-04-10T16:10:57;14.60;97.30
42365;DHT22;28498;54.400;18.566;2023-04-10T16:13:24;15.00;96.10
42365;DHT22;28498;54.400;18.566;2023-04-10T16:15:51;14.90;94.00
42365;DHT22;28498;54.400;18.566;2023-04-10T16:18:18;14.60;94.30
42365;DHT22;28498;54.400;18.566;2023-04-10T16:20:45;14.80;93.60
42365;DHT22;28498;54.400;18.566;2023-04-10T16:23:12;14.20;94.10
42365;DHT22;28498;54.400;18.566;2023-04-10T16:25:39;13.10;97.20
42365;DHT22;28498;54.400;18.566;2023-04-10T16:28:06;12.30;99.90
42365;DHT22;28498;54.400;18.566;2023-04-10T16:30:34;11.30;99.90
42365;DHT22;28498;54.400;18.566;2023-04-10T16:33:02;10.30;99.90
42365;DHT22;28498;54.400;18.566;2023-04-10T16:35:30;9.90;99.90